sensor_id;sensor_type;location;lat;lon;timestamp;P1;durP1;ratioP1;P2;durP2;ratioP2
5785;SDS011;2919;48.630;9.000;2023-09-07T00:01:49;3.97;;;2.33;;
5785;SDS011;2919;48.630;9.000;2023-09-07T00:04:17;3.73;;;1.87;;
5785;SDS011;2919;48.630;9.000;2023-09-07T00:06:44;3.93;;;2.30;;
5785;SDS011;2919;48.630;9.000;2023-09-07T00:09:09;4.17;;;2.50;;
5785;SDS011;2919;48.630;9.000;2023-09-07T00:11:37;4.47;;;2.53;;
5785;SDS011;2919;48.630;9.000;2023-09-07T00:14:03;3.80;;;2.20;;
5785;SDS011;2919;48.630;9.000;2023-09-07T00:16:31;3.30;;;2.03;;
5785;SDS011;2919;48.630;9.000;2023-09-07T00:18:59;5.07;;;2.47;;
5785;SDS011;2919;48.630;9.000;2023-09-07T00:21:24;5.27;;;2.73;;
5785;SDS011;2919;48.630;9.000;2023-09-07T00:23:50;2.93;;;1.77;;
5785;SDS011;2919;48.630;9.000;2023-09-07T00:26:16;22.17;;;2.73;;
5785;SDS011;2919;48.630;9.000;2023-09-07T00:28:41;4.00;;;2.30;;
5785;SDS011;2919;48.630;9.000;2023-09-07T00:31:07;7.13;;;2.57;;
5785;SDS011;2919;48.630;9.000;2023-09-07T00:33:33;5.17;;;2.50;;
5785;SDS011;2919;48.630;9.000;2023-09-07T00:35:58;3.30;;;2.03;;
5785;SDS011;2919;48.630;9.000;2023-09-07T00:38:26;4.60;;;2.70;;
5785;SDS011;2919;48.630;9.000;2023-09-07T00:40:51;3.43;;;2.30;;
5785;SDS011;2919;48.630;9.000;2023-09-07T00:43:17;8.43;;;2.43;;
5785;SDS011;2919;48.630;9.000;2023-09-07T00:45:43;5.80;;;2.63;;
5785;SDS011;2919;48.630;9.000;2023-09-07T00:48:08;3.73;;;2.33;;
5785;SDS011;2919;48.630;9.000;2023-09-07T00:50:36;3.60;;;2.00;;
5785;SDS011;2919;48.630;9.000;2023-09-07T00:53:02;3.20;;;1.80;;
5785;SDS011;2919;48.630;9.000;2023-09-07T00:55:28;3.40;;;1.80;;
5785;SDS011;2919;48.630;9.000;2023-09-07T00:57:57;3.30;;;2.20;;
5785;SDS011;2919;48.630;9.000;2023-09-07T01:00:23;4.60;;;2.07;;
5785;SDS011;2919;48.630;9.000;2023-09-07T01:02:49;3.17;;;1.70;;
5785;SDS011;2919;48.630;9.000;2023-09-07T01:05:15;3.43;;;1.73;;
5785;SDS011;2919;48.630;9.000;2023-09-07T01:07:43;4.20;;;1.60;;
5785;SDS011;2919;48.630;9.000;2023-09-07T01:10:18;5.10;;;2.37;;
5785;SDS011;2919;48.630;9.000;2023-09-07T01:12:45;3.63;;;2.40;;
5785;SDS011;2919;48.630;9.000;2023-09-07T01:15:11;7.80;;;2.30;;
5785;SDS011;2919;48.630;9.000;2023-09-07T01:17:37;4.63;;;2.13;;
5785;SDS011;2919;48.630;9.000;2023-09-07T01:20:04;5.80;;;2.27;;
5785;SDS011;2919;48.630;9.000;2023-09-07T01:22:34;3.73;;;1.43;;
5785;SDS011;2919;48.630;9.000;2023-09-07T01:25:01;3.33;;;1.70;;
5785;SDS011;2919;48.630;9.000;2023-09-07T01:27:30;4.37;;;2.30;;
5785;SDS011;2919;48.630;9.000;2023-09-07T01:29:55;4.37;;;2.30;;
5785;SDS011;2919;48.630;9.000;2023-09-07T01:32:22;3.47;;;2.00;;
5785;SDS011;2919;48.630;9.000;2023-09-07T01:34:48;4.00;;;2.20;;
5785;SDS011;2919;48.630;9.000;2023-09-07T01:37:13;10.07;;;2.93;;
5785;SDS011;2919;48.630;9.000;2023-09-07T01:39:39;3.80;;;2.00;;
5785;SDS011;2919;48.630;9.000;2023-09-07T01:42:04;5.27;;;2.10;;
5785;SDS011;2919;48.630;9.000;2023-09-07T01:44:30;4.30;;;1.90;;
5785;SDS011;2919;48.630;9.000;2023-09-07T01:46:56;7.60;;;2.30;;
5785;SDS011;2919;48.630;9.000;2023-09-07T01:49:21;4.63;;;2.23;;
5785;SDS011;2919;48.630;9.000;2023-09-07T01:51:47;7.20;;;2.07;;
5785;SDS011;2919;48.630;9.000;2023-09-07T01:54:12;2.80;;;1.40;;
5785;SDS011;2919;48.630;9.000;2023-09-07T01:56:38;3.77;;;1.80;;
5785;SDS011;2919;48.630;9.000;2023-09-07T01:59:06;4.00;;;2.00;;
5785;SDS011;2919;48.630;9.000;2023-09-07T02:01:31;2.43;;;1.57;;
5785;SDS011;2919;48.630;9.000;2023-09-07T02:04:01;3.10;;;1.60;;
5785;SDS011;2919;48.630;9.000;2023-09-07T02:06:27;4.30;;;1.93;;
5785;SDS011;2919;48.630;9.000;2023-09-07T02:08:53;3.27;;;1.67;;
5785;SDS011;2919;48.630;9.000;2023-09-07T02:11:19;5.00;;;2.30;;
5785;SDS011;2919;48.630;9.000;2023-09-07T02:13:45;4.80;;;2.10;;
5785;SDS011;2919;48.630;9.000;2023-09-07T02:16:12;3.20;;;1.63;;
5785;SDS011;2919;48.630;9.000;2023-09-07T02:18:37;3.70;;;2.10;;
5785;SDS011;2919;48.630;9.000;2023-09-07T02:21:05;5.67;;;2.07;;
5785;SDS011;2919;48.630;9.000;2023-09-07T02:23:34;3.97;;;2.30;;
5785;SDS011;2919;48.630;9.000;2023-09-07T02:26:00;3.60;;;1.80;;
5785;SDS011;2919;48.630;9.000;2023-09-07T02:28:26;4.70;;;2.20;;
5785;SDS011;2919;48.630;9.000;2023-09-07T02:30:52;3.07;;;1.93;;
5785;SDS011;2919;48.630;9.000;2023-09-07T02:33:17;3.17;;;2.07;;
5785;SDS011;2919;48.630;9.000;2023-09-07T02:35:43;3.10;;;1.70;;
5785;SDS011;2919;48.630;9.000;2023-09-07T02:38:09;3.20;;;1.77;;
5785;SDS011;2919;48.630;9.000;2023-09-07T02:40:40;3.57;;;1.80;;
5785;SDS011;2919;48.630;9.000;2023-09-07T02:43:10;5.73;;;2.90;;
5785;SDS011;2919;48.630;9.000;2023-09-07T02:45:35;4.37;;;2.67;;
5785;SDS011;2919;48.630;9.000;2023-09-07T02:48:01;3.73;;;1.80;;
5785;SDS011;2919;48.630;9.000;2023-09-07T02:50:32;6.60;;;2.77;;
5785;SDS011;2919;48.630;9.000;2023-09-07T02:52:59;3.97;;;1.80;;
5785;SDS011;2919;48.630;9.000;2023-09-07T02:55:26;3.30;;;1.70;;
5785;SDS011;2919;48.630;9.000;2023-09-07T02:57:52;4.20;;;2.40;;
5785;SDS011;2919;48.630;9.000;2023-09-07T03:00:17;4.00;;;2.20;;
5785;SDS011;2919;48.630;9.000;2023-09-07T03:02:43;4.80;;;2.00;;
5785;SDS011;2919;48.630;9.000;2023-09-07T03:05:09;4.57;;;2.37;;
5785;SDS011;2919;48.630;9.000;2023-09-07T03:07:35;4.00;;;1.77;;
5785;SDS011;2919;48.630;9.000;2023-09-07T03:10:04;4.57;;;1.60;;
5785;SDS011;2919;48.630;9.000;2023-09-07T03:12:30;4.33;;;2.10;;
5785;SDS011;2919;48.630;9.000;2023-09-07T03:14:56;10.10;;;1.97;;
5785;SDS011;2919;48.630;9.000;2023-09-07T03:17:21;5.70;;;2.43;;
5785;SDS011;2919;48.630;9.000;2023-09-07T03:19:47;6.07;;;2.40;;
5785;SDS011;2919;48.630;9.000;2023-09-07T03:22:13;4.80;;;1.70;;
5785;SDS011;2919;48.630;9.000;2023-09-07T03:24:39;3.00;;;1.67;;
5785;SDS011;2919;48.630;9.000;2023-09-07T03:27:05;19.83;;;3.20;;
5785;SDS011;2919;48.630;9.000;2023-09-07T03:29:31;10.37;;;2.57;;
5785;SDS011;2919;48.630;9.000;2023-09-07T03:31:58;7.73;;;2.90;;
5785;SDS011;2919;48.630;9.000;2023-09-07T03:34:25;4.10;;;2.40;;
5785;SDS011;2919;48.630;9.000;2023-09-07T03:36:50;4.93;;;3.40;;
5785;SDS011;2919;48.630;9.000;2023-09-07T03:39:16;5.73;;;2.47;;
5785;SDS011;2919;48.630;9.000;2023-09-07T03:41:43;4.27;;;2.40;;
5785;SDS011;2919;48.630;9.000;2023-09-07T03:44:09;5.77;;;2.90;;
5785;SDS011;2919;48.630;9.000;2023-09-07T03:46:35;4.60;;;2.67;;
5785;SDS011;2919;48.630;9.000;2023-09-07T03:49:01;7.10;;;2.90;;
5785;SDS011;2919;48.630;9.000;2023-09-07T03:51:27;5.60;;;2.30;;
5785;SDS011;2919;48.630;9.000;2023-09-07T03:53:53;4.10;;;2.50;;
5785;SDS011;2919;48.630;9.000;2023-09-07T03:56:19;12.90;;;2.80;;
5785;SDS011;2919;48.630;9.000;2023-09-07T03:58:44;12.13;;;3.67;;
5785;SDS011;2919;48.630;9.000;2023-09-07T04:01:12;8.50;;;3.77;;
5785;SDS011;2919;48.630;9.000;2023-09-07T04:03:38;10.17;;;4.30;;
5785;SDS011;2919;48.630;9.000;2023-09-07T04:06:05;9.67;;;4.50;;
5785;SDS011;2919;48.630;9.000;2023-09-07T04:08:31;8.23;;;4.80;;
5785;SDS011;2919;48.630;9.000;2023-09-07T04:10:57;9.93;;;4.70;;
5785;SDS011;2919;48.630;9.000;2023-09-07T04:13:22;15.23;;;4.97;;
5785;SDS011;2919;48.630;9.000;2023-09-07T04:15:48;7.80;;;3.70;;
5785;SDS011;2919;48.630;9.000;2023-09-07T04:18:14;7.13;;;3.67;;
5785;SDS011;2919;48.630;9.000;2023-09-07T04:20:41;5.90;;;2.97;;
5785;SDS011;2919;48.630;9.000;2023-09-07T04:23:07;7.33;;;3.90;;
5785;SDS011;2919;48.630;9.000;2023-09-07T04:25:33;5.33;;;2.80;;
5785;SDS011;2919;48.630;9.000;2023-09-07T04:27:59;24.80;;;3.80;;
5785;SDS011;2919;48.630;9.000;2023-09-07T04:30:25;5.37;;;2.80;;
5785;SDS011;2919;48.630;9.000;2023-09-07T04:32:50;2.73;;;1.90;;
5785;SDS011;2919;48.630;9.000;2023-09-07T04:35:16;21.87;;;2.93;;
5785;SDS011;2919;48.630;9.000;2023-09-07T04:37:42;4.20;;;2.53;;
5785;SDS011;2919;48.630;9.000;2023-09-07T04:40:10;4.13;;;2.83;;
5785;SDS011;2919;48.630;9.000;2023-09-07T04:42:36;4.60;;;2.93;;
5785;SDS011;2919;48.630;9.000;2023-09-07T04:45:04;3.97;;;2.17;;
5785;SDS011;2919;48.630;9.000;2023-09-07T04:47:30;7.50;;;2.73;;
5785;SDS011;2919;48.630;9.000;2023-09-07T04:49:56;4.57;;;2.40;;
5785;SDS011;2919;48.630;9.000;2023-09-07T04:52:21;4.20;;;2.50;;
5785;SDS011;2919;48.630;9.000;2023-09-07T04:54:47;4.63;;;2.43;;
5785;SDS011;2919;48.630;9.000;2023-09-07T04:57:15;10.93;;;2.93;;
5785;SDS011;2919;48.630;9.000;2023-09-07T04:59:42;7.50;;;2.57;;
5785;SDS011;2919;48.630;9.000;2023-09-07T05:02:08;5.63;;;2.53;;
5785;SDS011;2919;48.630;9.000;2023-09-07T05:04:34;2.97;;;1.90;;
5785;SDS011;2919;48.630;9.000;2023-09-07T05:06:59;4.90;;;2.37;;
5785;SDS011;2919;48.630;9.000;2023-09-07T05:09:25;6.10;;;2.30;;
5785;SDS011;2919;48.630;9.000;2023-09-07T05:11:51;5.07;;;2.43;;
5785;SDS011;2919;48.630;9.000;2023-09-07T05:14:17;3.10;;;2.00;;
5785;SDS011;2919;48.630;9.000;2023-09-07T05:16:43;3.57;;;2.43;;
5785;SDS011;2919;48.630;9.000;2023-09-07T05:19:09;4.37;;;2.57;;
5785;SDS011;2919;48.630;9.000;2023-09-07T05:21:35;5.10;;;2.77;;
5785;SDS011;2919;48.630;9.000;2023-09-07T05:24:00;3.50;;;2.27;;
5785;SDS011;2919;48.630;9.000;2023-09-07T05:26:26;8.00;;;2.23;;
5785;SDS011;2919;48.630;9.000;2023-09-07T05:28:51;13.00;;;2.80;;
5785;SDS011;2919;48.630;9.000;2023-09-07T05:31:17;5.37;;;2.33;;
5785;SDS011;2919;48.630;9.000;2023-09-07T05:33:43;4.40;;;2.50;;
5785;SDS011;2919;48.630;9.000;2023-09-07T05:36:08;3.43;;;2.60;;
5785;SDS011;2919;48.630;9.000;2023-09-07T05:38:34;9.83;;;2.17;;
5785;SDS011;2919;48.630;9.000;2023-09-07T05:41:00;5.67;;;2.63;;
5785;SDS011;2919;48.630;9.000;2023-09-07T05:43:25;3.97;;;2.03;;
5785;SDS011;2919;48.630;9.000;2023-09-07T05:45:51;5.00;;;2.37;;
5785;SDS011;2919;48.630;9.000;2023-09-07T05:48:16;4.00;;;2.53;;
5785;SDS011;2919;48.630;9.000;2023-09-07T05:50:43;6.90;;;3.00;;
5785;SDS011;2919;48.630;9.000;2023-09-07T05:53:08;4.63;;;2.60;;
5785;SDS011;2919;48.630;9.000;2023-09-07T05:55:34;8.47;;;3.03;;
5785;SDS011;2919;48.630;9.000;2023-09-07T05:58:03;12.40;;;2.80;;
5785;SDS011;2919;48.630;9.000;2023-09-07T06:00:30;5.30;;;2.83;;
5785;SDS011;2919;48.630;9.000;2023-09-07T06:02:55;9.57;;;3.17;;
5785;SDS011;2919;48.630;9.000;2023-09-07T06:05:21;6.57;;;2.80;;
5785;SDS011;2919;48.630;9.000;2023-09-07T06:07:47;5.73;;;2.97;;
5785;SDS011;2919;48.630;9.000;2023-09-07T06:10:13;7.23;;;3.07;;
5785;SDS011;2919;48.630;9.000;2023-09-07T06:12:38;5.63;;;2.70;;
5785;SDS011;2919;48.630;9.000;2023-09-07T06:15:04;8.50;;;4.00;;
5785;SDS011;2919;48.630;9.000;2023-09-07T06:17:30;4.00;;;2.77;;
5785;SDS011;2919;48.630;9.000;2023-09-07T06:19:56;6.80;;;3.30;;
5785;SDS011;2919;48.630;9.000;2023-09-07T06:22:22;5.87;;;3.50;;
5785;SDS011;2919;48.630;9.000;2023-09-07T06:24:47;12.03;;;3.83;;
5785;SDS011;2919;48.630;9.000;2023-09-07T06:27:14;7.17;;;3.03;;
5785;SDS011;2919;48.630;9.000;2023-09-07T06:29:39;10.80;;;2.57;;
5785;SDS011;2919;48.630;9.000;2023-09-07T06:32:05;9.00;;;2.83;;
5785;SDS011;2919;48.630;9.000;2023-09-07T06:34:30;5.00;;;3.20;;
5785;SDS011;2919;48.630;9.000;2023-09-07T06:36:56;5.67;;;2.57;;
5785;SDS011;2919;48.630;9.000;2023-09-07T06:39:22;6.00;;;3.70;;
5785;SDS011;2919;48.630;9.000;2023-09-07T06:41:47;6.70;;;3.73;;
5785;SDS011;2919;48.630;9.000;2023-09-07T06:44:13;8.30;;;4.10;;
5785;SDS011;2919;48.630;9.000;2023-09-07T06:46:39;9.83;;;3.53;;
5785;SDS011;2919;48.630;9.000;2023-09-07T06:49:05;9.30;;;4.30;;
5785;SDS011;2919;48.630;9.000;2023-09-07T06:51:31;10.77;;;3.73;;
5785;SDS011;2919;48.630;9.000;2023-09-07T06:53:56;5.80;;;3.43;;
5785;SDS011;2919;48.630;9.000;2023-09-07T06:56:22;8.90;;;3.80;;
5785;SDS011;2919;48.630;9.000;2023-09-07T06:58:48;7.73;;;3.73;;
5785;SDS011;2919;48.630;9.000;2023-09-07T07:01:14;6.70;;;4.43;;
5785;SDS011;2919;48.630;9.000;2023-09-07T07:03:40;7.27;;;4.07;;
5785;SDS011;2919;48.630;9.000;2023-09-07T07:06:06;8.00;;;4.07;;
5785;SDS011;2919;48.630;9.000;2023-09-07T07:08:32;6.37;;;3.23;;
5785;SDS011;2919;48.630;9.000;2023-09-07T07:10:57;5.53;;;3.43;;
5785;SDS011;2919;48.630;9.000;2023-09-07T07:13:23;6.57;;;3.73;;
5785;SDS011;2919;48.630;9.000;2023-09-07T07:15:49;9.17;;;4.10;;
5785;SDS011;2919;48.630;9.000;2023-09-07T07:18:14;7.80;;;3.23;;
5785;SDS011;2919;48.630;9.000;2023-09-07T07:20:40;6.47;;;3.03;;
5785;SDS011;2919;48.630;9.000;2023-09-07T07:23:07;7.10;;;3.50;;
5785;SDS011;2919;48.630;9.000;2023-09-07T07:25:33;6.80;;;3.87;;
5785;SDS011;2919;48.630;9.000;2023-09-07T07:28:02;5.80;;;2.93;;
5785;SDS011;2919;48.630;9.000;2023-09-07T07:30:32;5.60;;;3.57;;
5785;SDS011;2919;48.630;9.000;2023-09-07T07:33:01;5.30;;;3.23;;
5785;SDS011;2919;48.630;9.000;2023-09-07T07:35:31;7.60;;;2.80;;
5785;SDS011;2919;48.630;9.000;2023-09-07T07:37:57;5.40;;;3.17;;
5785;SDS011;2919;48.630;9.000;2023-09-07T07:40:23;9.10;;;3.90;;
5785;SDS011;2919;48.630;9.000;2023-09-07T07:42:52;6.73;;;2.67;;
5785;SDS011;2919;48.630;9.000;2023-09-07T07:45:18;3.60;;;2.63;;
5785;SDS011;2919;48.630;9.000;2023-09-07T07:47:50;5.53;;;3.03;;
5785;SDS011;2919;48.630;9.000;2023-09-07T07:50:17;5.60;;;3.13;;
5785;SDS011;2919;48.630;9.000;2023-09-07T07:52:43;3.97;;;2.93;;
5785;SDS011;2919;48.630;9.000;2023-09-07T07:55:09;4.40;;;2.73;;
5785;SDS011;2919;48.630;9.000;2023-09-07T07:57:35;5.17;;;3.40;;
5785;SDS011;2919;48.630;9.000;2023-09-07T08:00:02;4.17;;;2.73;;
5785;SDS011;2919;48.630;9.000;2023-09-07T08:02:29;9.03;;;3.50;;
5785;SDS011;2919;48.630;9.000;2023-09-07T08:04:55;8.33;;;3.57;;
5785;SDS011;2919;48.630;9.000;2023-09-07T08:07:20;4.93;;;2.67;;
5785;SDS011;2919;48.630;9.000;2023-09-07T08:09:46;4.67;;;3.00;;
5785;SDS011;2919;48.630;9.000;2023-09-07T08:12:12;5.50;;;3.47;;
5785;SDS011;2919;48.630;9.000;2023-09-07T08:14:38;5.10;;;3.03;;
5785;SDS011;2919;48.630;9.000;2023-09-07T08:17:03;3.90;;;2.50;;
5785;SDS011;2919;48.630;9.000;2023-09-07T08:19:29;9.13;;;3.43;;
5785;SDS011;2919;48.630;9.000;2023-09-07T08:21:56;5.03;;;2.87;;
5785;SDS011;2919;48.630;9.000;2023-09-07T08:24:23;4.73;;;2.73;;
5785;SDS011;2919;48.630;9.000;2023-09-07T08:26:49;4.80;;;2.87;;
5785;SDS011;2919;48.630;9.000;2023-09-07T08:29:19;5.70;;;3.03;;
5785;SDS011;2919;48.630;9.000;2023-09-07T08:31:45;3.80;;;2.73;;
5785;SDS011;2919;48.630;9.000;2023-09-07T08:34:13;5.43;;;2.97;;
5785;SDS011;2919;48.630;9.000;2023-09-07T08:36:40;7.53;;;3.10;;
5785;SDS011;2919;48.630;9.000;2023-09-07T08:39:05;4.45;;;2.63;;
5785;SDS011;2919;48.630;9.000;2023-09-07T08:41:37;6.38;;;3.78;;
5785;SDS011;2919;48.630;9.000;2023-09-07T08:44:12;4.15;;;2.55;;
5785;SDS011;2919;48.630;9.000;2023-09-07T08:46:40;7.20;;;3.00;;
5785;SDS011;2919;48.630;9.000;2023-09-07T08:49:07;3.65;;;2.40;;
5785;SDS011;2919;48.630;9.000;2023-09-07T08:51:34;4.55;;;2.70;;
5785;SDS011;2919;48.630;9.000;2023-09-07T08:54:02;6.63;;;2.55;;
5785;SDS011;2919;48.630;9.000;2023-09-07T08:56:28;5.28;;;3.40;;
5785;SDS011;2919;48.630;9.000;2023-09-07T08:58:54;5.38;;;3.15;;
5785;SDS011;2919;48.630;9.000;2023-09-07T09:01:19;5.93;;;3.47;;
5785;SDS011;2919;48.630;9.000;2023-09-07T09:03:48;6.70;;;3.80;;
5785;SDS011;2919;48.630;9.000;2023-09-07T09:06:16;6.18;;;3.53;;
5785;SDS011;2919;48.630;9.000;2023-09-07T09:08:44;5.93;;;2.97;;
5785;SDS011;2919;48.630;9.000;2023-09-07T09:11:19;6.80;;;3.15;;
5785;SDS011;2919;48.630;9.000;2023-09-07T09:13:45;7.40;;;3.70;;
5785;SDS011;2919;48.630;9.000;2023-09-07T09:16:12;6.63;;;2.85;;
5785;SDS011;2919;48.630;9.000;2023-09-07T09:18:38;5.68;;;3.20;;
5785;SDS011;2919;48.630;9.000;2023-09-07T09:21:13;6.07;;;2.83;;
5785;SDS011;2919;48.630;9.000;2023-09-07T09:23:39;5.38;;;3.45;;
5785;SDS011;2919;48.630;9.000;2023-09-07T09:26:06;4.28;;;2.33;;
5785;SDS011;2919;48.630;9.000;2023-09-07T09:28:32;6.18;;;3.03;;
5785;SDS011;2919;48.630;9.000;2023-09-07T09:30:59;6.93;;;3.38;;
5785;SDS011;2919;48.630;9.000;2023-09-07T09:33:31;9.05;;;3.25;;
5785;SDS011;2919;48.630;9.000;2023-09-07T09:35:58;5.38;;;3.10;;
5785;SDS011;2919;48.630;9.000;2023-09-07T09:38:24;4.88;;;3.10;;
5785;SDS011;2919;48.630;9.000;2023-09-07T09:40:51;6.20;;;3.17;;
5785;SDS011;2919;48.630;9.000;2023-09-07T09:43:19;4.60;;;2.80;;
5785;SDS011;2919;48.630;9.000;2023-09-07T09:45:45;6.97;;;3.10;;
5785;SDS011;2919;48.630;9.000;2023-09-07T09:48:11;6.78;;;3.63;;
5785;SDS011;2919;48.630;9.000;2023-09-07T09:50:38;5.40;;;3.22;;
5785;SDS011;2919;48.630;9.000;2023-09-07T09:53:05;5.38;;;3.10;;
5785;SDS011;2919;48.630;9.000;2023-09-07T09:55:32;4.57;;;3.38;;
5785;SDS011;2919;48.630;9.000;2023-09-07T09:57:58;5.40;;;3.07;;
5785;SDS011;2919;48.630;9.000;2023-09-07T10:00:24;4.60;;;2.90;;
5785;SDS011;2919;48.630;9.000;2023-09-07T10:03:17;8.50;;;2.93;;
5785;SDS011;2919;48.630;9.000;2023-09-07T10:05:45;10.43;;;3.37;;
5785;SDS011;2919;48.630;9.000;2023-09-07T10:08:12;4.73;;;3.30;;
5785;SDS011;2919;48.630;9.000;2023-09-07T10:10:40;4.90;;;3.53;;
5785;SDS011;2919;48.630;9.000;2023-09-07T10:13:07;10.70;;;3.20;;
5785;SDS011;2919;48.630;9.000;2023-09-07T10:15:33;7.50;;;2.90;;
5785;SDS011;2919;48.630;9.000;2023-09-07T10:23:13;9.13;;;3.77;;
5785;SDS011;2919;48.630;9.000;2023-09-07T10:25:39;5.93;;;3.60;;
5785;SDS011;2919;48.630;9.000;2023-09-07T10:28:05;5.60;;;3.77;;
5785;SDS011;2919;48.630;9.000;2023-09-07T10:30:41;5.03;;;3.10;;
5785;SDS011;2919;48.630;9.000;2023-09-07T10:33:07;4.90;;;2.73;;
5785;SDS011;2919;48.630;9.000;2023-09-07T10:35:43;7.93;;;3.67;;
5785;SDS011;2919;48.630;9.000;2023-09-07T10:38:12;7.10;;;3.10;;
5785;SDS011;2919;48.630;9.000;2023-09-07T10:40:38;6.70;;;2.80;;
5785;SDS011;2919;48.630;9.000;2023-09-07T10:43:04;5.50;;;3.43;;
5785;SDS011;2919;48.630;9.000;2023-09-07T10:45:30;7.43;;;3.13;;
5785;SDS011;2919;48.630;9.000;2023-09-07T10:47:56;5.20;;;2.90;;
5785;SDS011;2919;48.630;9.000;2023-09-07T10:50:21;4.00;;;2.80;;
5785;SDS011;2919;48.630;9.000;2023-09-07T10:52:47;5.83;;;3.40;;
5785;SDS011;2919;48.630;9.000;2023-09-07T10:55:13;5.70;;;3.30;;
5785;SDS011;2919;48.630;9.000;2023-09-07T10:57:42;6.30;;;3.57;;
5785;SDS011;2919;48.630;9.000;2023-09-07T11:00:09;5.60;;;2.83;;
5785;SDS011;2919;48.630;9.000;2023-09-07T11:02:36;21.07;;;3.60;;
5785;SDS011;2919;48.630;9.000;2023-09-07T11:05:05;7.50;;;3.10;;
5785;SDS011;2919;48.630;9.000;2023-09-07T11:07:32;5.37;;;3.20;;
5785;SDS011;2919;48.630;9.000;2023-09-07T11:09:58;6.20;;;3.33;;
5785;SDS011;2919;48.630;9.000;2023-09-07T11:12:24;4.37;;;3.20;;
5785;SDS011;2919;48.630;9.000;2023-09-07T11:14:50;5.33;;;2.97;;
5785;SDS011;2919;48.630;9.000;2023-09-07T11:17:17;10.80;;;2.97;;
5785;SDS011;2919;48.630;9.000;2023-09-07T11:19:43;4.30;;;2.70;;
5785;SDS011;2919;48.630;9.000;2023-09-07T11:22:11;7.20;;;2.50;;
5785;SDS011;2919;48.630;9.000;2023-09-07T11:24:38;4.10;;;2.47;;
5785;SDS011;2919;48.630;9.000;2023-09-07T11:27:05;8.57;;;3.77;;
5785;SDS011;2919;48.630;9.000;2023-09-07T11:29:30;5.60;;;3.00;;
5785;SDS011;2919;48.630;9.000;2023-09-07T11:32:06;6.07;;;3.73;;
5785;SDS011;2919;48.630;9.000;2023-09-07T11:34:33;7.00;;;2.70;;
5785;SDS011;2919;48.630;9.000;2023-09-07T11:37:01;7.73;;;3.57;;
5785;SDS011;2919;48.630;9.000;2023-09-07T11:39:28;5.40;;;3.30;;
5785;SDS011;2919;48.630;9.000;2023-09-07T11:41:54;10.80;;;3.47;;
5785;SDS011;2919;48.630;9.000;2023-09-07T11:44:19;4.57;;;3.07;;
5785;SDS011;2919;48.630;9.000;2023-09-07T11:46:45;6.07;;;3.50;;
5785;SDS011;2919;48.630;9.000;2023-09-07T11:49:11;6.47;;;3.23;;
5785;SDS011;2919;48.630;9.000;2023-09-07T11:51:37;8.40;;;3.27;;
5785;SDS011;2919;48.630;9.000;2023-09-07T11:54:03;7.70;;;3.03;;
5785;SDS011;2919;48.630;9.000;2023-09-07T11:56:29;5.47;;;3.93;;
5785;SDS011;2919;48.630;9.000;2023-09-07T11:58:55;10.20;;;3.70;;
5785;SDS011;2919;48.630;9.000;2023-09-07T12:01:21;4.50;;;2.87;;
5785;SDS011;2919;48.630;9.000;2023-09-07T12:03:47;8.00;;;3.60;;
5785;SDS011;2919;48.630;9.000;2023-09-07T12:06:13;11.20;;;4.50;;
5785;SDS011;2919;48.630;9.000;2023-09-07T12:08:41;10.80;;;3.83;;
5785;SDS011;2919;48.630;9.000;2023-09-07T12:11:22;6.57;;;3.33;;
5785;SDS011;2919;48.630;9.000;2023-09-07T12:13:48;7.10;;;3.43;;
5785;SDS011;2919;48.630;9.000;2023-09-07T12:16:13;5.93;;;3.10;;
5785;SDS011;2919;48.630;9.000;2023-09-07T12:18:39;6.83;;;3.67;;
5785;SDS011;2919;48.630;9.000;2023-09-07T12:21:05;5.83;;;3.77;;
5785;SDS011;2919;48.630;9.000;2023-09-07T12:23:30;4.83;;;4.00;;
5785;SDS011;2919;48.630;9.000;2023-09-07T12:25:56;7.73;;;3.40;;
5785;SDS011;2919;48.630;9.000;2023-09-07T12:28:22;5.90;;;3.40;;
5785;SDS011;2919;48.630;9.000;2023-09-07T12:30:47;5.77;;;3.30;;
5785;SDS011;2919;48.630;9.000;2023-09-07T12:33:14;6.13;;;3.08;;
5785;SDS011;2919;48.630;9.000;2023-09-07T12:35:39;9.32;;;3.42;;
5785;SDS011;2919;48.630;9.000;2023-09-07T12:38:05;5.30;;;3.75;;
5785;SDS011;2919;48.630;9.000;2023-09-07T12:40:34;3.90;;;2.67;;
5785;SDS011;2919;48.630;9.000;2023-09-07T12:42:59;5.95;;;3.10;;
5785;SDS011;2919;48.630;9.000;2023-09-07T12:45:25;5.22;;;3.15;;
5785;SDS011;2919;48.630;9.000;2023-09-07T12:47:50;5.47;;;3.35;;
5785;SDS011;2919;48.630;9.000;2023-09-07T12:50:16;5.25;;;3.25;;
5785;SDS011;2919;48.630;9.000;2023-09-07T12:52:41;4.68;;;3.60;;
5785;SDS011;2919;48.630;9.000;2023-09-07T12:55:07;4.90;;;3.47;;
5785;SDS011;2919;48.630;9.000;2023-09-07T12:57:33;11.88;;;3.90;;
5785;SDS011;2919;48.630;9.000;2023-09-07T12:59:59;5.07;;;2.85;;
5785;SDS011;2919;48.630;9.000;2023-09-07T13:02:25;6.43;;;3.28;;
5785;SDS011;2919;48.630;9.000;2023-09-07T13:04:51;13.48;;;3.63;;
5785;SDS011;2919;48.630;9.000;2023-09-07T13:07:18;5.15;;;2.95;;
5785;SDS011;2919;48.630;9.000;2023-09-07T13:09:44;6.37;;;3.80;;
5785;SDS011;2919;48.630;9.000;2023-09-07T13:12:10;16.88;;;3.63;;
5785;SDS011;2919;48.630;9.000;2023-09-07T13:14:36;6.13;;;3.28;;
5785;SDS011;2919;48.630;9.000;2023-09-07T13:17:02;6.23;;;3.50;;
5785;SDS011;2919;48.630;9.000;2023-09-07T13:19:27;5.20;;;3.05;;
5785;SDS011;2919;48.630;9.000;2023-09-07T13:21:54;4.28;;;2.92;;
5785;SDS011;2919;48.630;9.000;2023-09-07T13:24:19;5.93;;;2.60;;
5785;SDS011;2919;48.630;9.000;2023-09-07T13:26:47;9.18;;;2.97;;
5785;SDS011;2919;48.630;9.000;2023-09-07T13:29:13;4.03;;;2.47;;
5785;SDS011;2919;48.630;9.000;2023-09-07T13:31:39;5.60;;;2.90;;
5785;SDS011;2919;48.630;9.000;2023-09-07T13:34:04;6.45;;;3.17;;
5785;SDS011;2919;48.630;9.000;2023-09-07T13:36:30;6.88;;;3.50;;
5785;SDS011;2919;48.630;9.000;2023-09-07T13:38:56;6.20;;;3.30;;
5785;SDS011;2919;48.630;9.000;2023-09-07T13:41:22;8.52;;;3.20;;
5785;SDS011;2919;48.630;9.000;2023-09-07T13:43:48;4.00;;;2.45;;
5785;SDS011;2919;48.630;9.000;2023-09-07T13:46:14;11.90;;;2.38;;
5785;SDS011;2919;48.630;9.000;2023-09-07T13:48:39;5.18;;;2.40;;
5785;SDS011;2919;48.630;9.000;2023-09-07T13:51:05;5.15;;;2.47;;
5785;SDS011;2919;48.630;9.000;2023-09-07T13:53:31;3.80;;;2.47;;
5785;SDS011;2919;48.630;9.000;2023-09-07T13:55:56;7.03;;;3.20;;
5785;SDS011;2919;48.630;9.000;2023-09-07T13:58:22;3.45;;;2.15;;
5785;SDS011;2919;48.630;9.000;2023-09-07T14:00:47;5.53;;;2.75;;
5785;SDS011;2919;48.630;9.000;2023-09-07T14:03:14;4.57;;;2.67;;
5785;SDS011;2919;48.630;9.000;2023-09-07T14:05:40;9.80;;;3.30;;
5785;SDS011;2919;48.630;9.000;2023-09-07T14:08:06;4.60;;;2.78;;
5785;SDS011;2919;48.630;9.000;2023-09-07T14:10:31;6.55;;;2.75;;
5785;SDS011;2919;48.630;9.000;2023-09-07T14:12:57;5.30;;;2.75;;
5785;SDS011;2919;48.630;9.000;2023-09-07T14:15:23;4.20;;;1.92;;
5785;SDS011;2919;48.630;9.000;2023-09-07T14:17:48;6.70;;;3.05;;
5785;SDS011;2919;48.630;9.000;2023-09-07T14:20:14;4.93;;;2.47;;
5785;SDS011;2919;48.630;9.000;2023-09-07T14:22:39;5.53;;;2.38;;
5785;SDS011;2919;48.630;9.000;2023-09-07T14:25:05;3.55;;;2.20;;
5785;SDS011;2919;48.630;9.000;2023-09-07T14:27:32;4.40;;;2.75;;
5785;SDS011;2919;48.630;9.000;2023-09-07T14:29:58;7.53;;;2.88;;
5785;SDS011;2919;48.630;9.000;2023-09-07T14:32:23;5.88;;;2.22;;
5785;SDS011;2919;48.630;9.000;2023-09-07T14:34:49;2.75;;;2.05;;
5785;SDS011;2919;48.630;9.000;2023-09-07T14:37:14;5.60;;;2.63;;
5785;SDS011;2919;48.630;9.000;2023-09-07T14:39:40;6.53;;;2.80;;
5785;SDS011;2919;48.630;9.000;2023-09-07T14:42:12;4.63;;;2.40;;
5785;SDS011;2919;48.630;9.000;2023-09-07T14:44:41;5.10;;;2.70;;
5785;SDS011;2919;48.630;9.000;2023-09-07T14:47:07;5.60;;;2.43;;
5785;SDS011;2919;48.630;9.000;2023-09-07T14:49:33;5.33;;;1.83;;
5785;SDS011;2919;48.630;9.000;2023-09-07T14:51:58;5.67;;;2.77;;
5785;SDS011;2919;48.630;9.000;2023-09-07T14:54:24;4.90;;;2.03;;
5785;SDS011;2919;48.630;9.000;2023-09-07T14:56:50;5.00;;;2.77;;
5785;SDS011;2919;48.630;9.000;2023-09-07T14:59:15;13.93;;;2.65;;
5785;SDS011;2919;48.630;9.000;2023-09-07T15:01:41;3.92;;;2.47;;
5785;SDS011;2919;48.630;9.000;2023-09-07T15:04:07;3.63;;;2.72;;
5785;SDS011;2919;48.630;9.000;2023-09-07T15:06:33;4.50;;;2.70;;
5785;SDS011;2919;48.630;9.000;2023-09-07T15:08:59;3.87;;;2.00;;
5785;SDS011;2919;48.630;9.000;2023-09-07T15:11:25;6.30;;;2.50;;
5785;SDS011;2919;48.630;9.000;2023-09-07T15:13:50;4.20;;;2.63;;
5785;SDS011;2919;48.630;9.000;2023-09-07T15:16:18;4.20;;;2.23;;